sensor_id;sensor_type;location;lat;lon;timestamp;temperature;humidity
15900;DHT22;8048;50.644;6.184;2023-04-30T00:00:34;7.30;99.90
15900;DHT22;8048;50.644;6.184;2023-04-30T00:03:00;7.20;99.90
15900;DHT22;8048;50.644;6.184;2023-04-30T00:05:25;7.20;99.90
15900;DHT22;8048;50.644;6.184;2023-04-30T00:07:51;7.20;99.90
15900;DHT22;8048;50.644;6.184;2023-04-30T00:10:16;7.20;99.90
15900;DHT22;8048;50.644;6.184;2023-04-30T00:12:42;7.20;99.90
15900;DHT22;8048;50.644;6.184;2023-04-30T00:15:08;7.20;99.90
15900;DHT22;8048;50.644;6.184;2023-04-30T00:17:33;7.20;99.90
15900;DHT22;8048;50.644;6.184;2023-04-30T00:19:59;7.20;99.90
15900;DHT22;8048;50.644;6.184;2023-04-30T00:22:25;7.10;99.90
15900;DHT22;8048;50.644;6.184;2023-04-30T00:24:50;7.10;99.90
15900;DHT22;8048;50.644;6.184;2023-04-30T00:27:16;7.00;99.90
15900;DHT22;8048;50.644;6.184;2023-04-30T00:29:42;7.00;99.90
15900;DHT22;8048;50.644;6.184;2023-04-30T00:32:07;6.90;99.90
15900;DHT22;8048;50.644;6.184;2023-04-30T00:34:33;6.90;99.90
15900;DHT22;8048;50.644;6.184;2023-04-30T00:36:58;6.80;99.90
15900;DHT22;8048;50.644;6.184;2023-04-30T00:39:24;6.80;99.90
15900;DHT22;8048;50.644;6.184;2023-04-30T00:41:49;6.70;99.90
15900;DHT22;8048;50.644;6.184;2023-04-30T00:44:15;6.70;99.90
15900;DHT22;8048;50.644;6.184;2023-04-30T00:46:40;6.60;99.90
15900;DHT22;8048;50.644;6.184;2023-04-30T00:49:06;6.60;99.90
15900;DHT22;8048;50.644;6.184;2023-04-30T00:51:32;6.60;99.90
15900;DHT22;8048;50.644;6.184;2023-04-30T00:54:01;6.60;99.90
15900;DHT22;8048;50.644;6.184;2023-04-30T00:56:28;6.50;99.90
15900;DHT22;8048;50.644;6.184;2023-04-30T00:58:55;6.50;99.90
15900;DHT22;8048;50.644;6.184;2023-04-30T01:01:25;6.40;99.90
15900;DHT22;8048;50.644;6.184;2023-04-30T01:03:53;6.30;99.90
15900;DHT22;8048;50.644;6.184;2023-04-30T01:06:18;6.30;99.90
15900;DHT22;8048;50.644;6.184;2023-04-30T01:08:44;6.30;99.90
15900;DHT22;8048;50.644;6.184;2023-04-30T01:14:07;6.20;99.90
15900;DHT22;8048;50.644;6.184;2023-04-30T01:16:59;6.10;99.90
15900;DHT22;8048;50.644;6.184;2023-04-30T01:19:40;6.10;99.90
15900;DHT22;8048;50.644;6.184;2023-04-30T01:22:11;6.00;99.90
15900;DHT22;8048;50.644;6.184;2023-04-30T01:30:25;5.90;99.90
15900;DHT22;8048;50.644;6.184;2023-04-30T01:32:51;5.80;99.90
15900;DHT22;8048;50.644;6.184;2023-04-30T01:35:16;5.70;99.90
15900;DHT22;8048;50.644;6.184;2023-04-30T01:40:20;5.60;99.90
15900;DHT22;8048;50.644;6.184;2023-04-30T01:43:18;5.60;99.90
15900;DHT22;8048;50.644;6.184;2023-04-30T01:46:01;5.50;99.90
15900;DHT22;8048;50.644;6.184;2023-04-30T01:48:45;5.50;99.90
15900;DHT22;8048;50.644;6.184;2023-04-30T01:51:27;5.40;99.90
15900;DHT22;8048;50.644;6.184;2023-04-30T01:53:58;5.40;99.90
15900;DHT22;8048;50.644;6.184;2023-04-30T01:56:29;5.40;99.90
15900;DHT22;8048;50.644;6.184;2023-04-30T01:58:56;5.30;99.90
15900;DHT22;8048;50.644;6.184;2023-04-30T02:01:32;5.30;99.90
15900;DHT22;8048;50.644;6.184;2023-04-30T02:03:57;5.20;99.90
15900;DHT22;8048;50.644;6.184;2023-04-30T02:06:24;5.20;99.90
15900;DHT22;8048;50.644;6.184;2023-04-30T02:08:54;5.20;99.90
15900;DHT22;8048;50.644;6.184;2023-04-30T02:11:21;5.20;99.90
15900;DHT22;8048;50.644;6.184;2023-04-30T02:13:49;5.10;99.90
15900;DHT22;8048;50.644;6.184;2023-04-30T02:16:14;5.10;99.90
15900;DHT22;8048;50.644;6.184;2023-04-30T02:18:40;5.00;99.90
15900;DHT22;8048;50.644;6.184;2023-04-30T02:21:05;5.00;99.90
15900;DHT22;8048;50.644;6.184;2023-04-30T02:23:31;5.00;99.90
15900;DHT22;8048;50.644;6.184;2023-04-30T02:25:56;5.00;99.90
15900;DHT22;8048;50.644;6.184;2023-04-30T02:28:22;4.90;99.90
15900;DHT22;8048;50.644;6.184;2023-04-30T02:30:47;4.90;99.90
15900;DHT22;8048;50.644;6.184;2023-04-30T02:33:13;4.90;99.90
15900;DHT22;8048;50.644;6.184;2023-04-30T02:35:40;4.80;99.90
15900;DHT22;8048;50.644;6.184;2023-04-30T02:38:05;4.80;99.90
15900;DHT22;8048;50.644;6.184;2023-04-30T02:40:31;4.70;99.90
15900;DHT22;8048;50.644;6.184;2023-04-30T02:42:57;4.70;99.90
15900;DHT22;8048;50.644;6.184;2023-04-30T02:45:23;4.60;99.90
15900;DHT22;8048;50.644;6.184;2023-04-30T02:47:48;4.60;99.90
15900;DHT22;8048;50.644;6.184;2023-04-30T02:50:14;4.60;99.90
15900;DHT22;8048;50.644;6.184;2023-04-30T02:52:40;4.60;99.90
15900;DHT22;8048;50.644;6.184;2023-04-30T02:55:06;4.50;99.90
15900;DHT22;8048;50.644;6.184;2023-04-30T02:57:31;4.50;99.90
15900;DHT22;8048;50.644;6.184;2023-04-30T02:59:57;4.40;99.90
15900;DHT22;8048;50.644;6.184;2023-04-30T03:02:22;4.40;99.90
15900;DHT22;8048;50.644;6.184;2023-04-30T03:04:48;4.40;99.90
15900;DHT22;8048;50.644;6.184;2023-04-30T03:07:14;4.30;99.90
15900;DHT22;8048;50.644;6.184;2023-04-30T03:09:40;4.30;99.90
15900;DHT22;8048;50.644;6.184;2023-04-30T03:12:05;4.20;99.90
15900;DHT22;8048;50.644;6.184;2023-04-30T03:14:31;4.20;99.90
15900;DHT22;8048;50.644;6.184;2023-04-30T03:16:56;4.20;99.90
15900;DHT22;8048;50.644;6.184;2023-04-30T03:19:22;4.20;99.90
15900;DHT22;8048;50.644;6.184;2023-04-30T03:21:50;4.20;99.90
15900;DHT22;8048;50.644;6.184;2023-04-30T03:24:17;4.10;99.90
15900;DHT22;8048;50.644;6.184;2023-04-30T03:26:42;4.10;99.90
15900;DHT22;8048;50.644;6.184;2023-04-30T03:29:08;4.00;99.90
15900;DHT22;8048;50.644;6.184;2023-04-30T03:31:33;4.00;99.90
15900;DHT22;8048;50.644;6.184;2023-04-30T03:33:59;4.00;99.90
15900;DHT22;8048;50.644;6.184;2023-04-30T03:36:24;4.00;99.90
15900;DHT22;8048;50.644;6.184;2023-04-30T03:38:51;3.90;99.90
15900;DHT22;8048;50.644;6.184;2023-04-30T03:41:17;3.90;99.90
15900;DHT22;8048;50.644;6.184;2023-04-30T03:43:42;3.90;99.90
15900;DHT22;8048;50.644;6.184;2023-04-30T03:46:08;3.90;99.90
15900;DHT22;8048;50.644;6.184;2023-04-30T03:48:33;3.90;99.90
15900;DHT22;8048;50.644;6.184;2023-04-30T03:50:59;3.80;99.90
15900;DHT22;8048;50.644;6.184;2023-04-30T03:53:24;3.80;99.90
15900;DHT22;8048;50.644;6.184;2023-04-30T03:55:51;3.80;99.90
15900;DHT22;8048;50.644;6.184;2023-04-30T03:58:16;3.80;99.90
15900;DHT22;8048;50.644;6.184;2023-04-30T04:00:42;3.80;99.90
15900;DHT22;8048;50.644;6.184;2023-04-30T04:03:10;3.70;99.90
15900;DHT22;8048;50.644;6.184;2023-04-30T04:05:36;3.70;99.90
15900;DHT22;8048;50.644;6.184;2023-04-30T04:08:01;3.60;99.90
15900;DHT22;8048;50.644;6.184;2023-04-30T04:10:27;3.60;99.90
15900;DHT22;8048;50.644;6.184;2023-04-30T04:12:52;3.50;99.90
15900;DHT22;8048;50.644;6.184;2023-04-30T04:15:18;3.50;99.90
15900;DHT22;8048;50.644;6.184;2023-04-30T04:17:43;3.50;99.90
15900;DHT22;8048;50.644;6.184;2023-04-30T04:20:09;3.50;99.90
15900;DHT22;8048;50.644;6.184;2023-04-30T04:22:35;3.40;99.90
15900;DHT22;8048;50.644;6.184;2023-04-30T04:25:01;3.40;99.90
15900;DHT22;8048;50.644;6.184;2023-04-30T04:27:26;3.40;99.90
15900;DHT22;8048;50.644;6.184;2023-04-30T04:29:52;3.40;99.90
15900;DHT22;8048;50.644;6.184;2023-04-30T04:32:19;3.40;99.90
15900;DHT22;8048;50.644;6.184;2023-04-30T04:34:44;3.50;99.90
15900;DHT22;8048;50.644;6.184;2023-04-30T04:37:10;3.50;99.90
15900;DHT22;8048;50.644;6.184;2023-04-30T04:39:35;3.40;99.90
15900;DHT22;8048;50.644;6.184;2023-04-30T04:42:02;3.50;99.90
15900;DHT22;8048;50.644;6.184;2023-04-30T04:44:27;3.50;99.90
15900;DHT22;8048;50.644;6.184;2023-04-30T04:46:53;3.50;99.90
15900;DHT22;8048;50.644;6.184;2023-04-30T04:49:20;3.50;99.90
15900;DHT22;8048;50.644;6.184;2023-04-30T04:51:46;3.50;99.90
15900;DHT22;8048;50.644;6.184;2023-04-30T04:54:11;3.50;99.90
15900;DHT22;8048;50.644;6.184;2023-04-30T04:56:37;3.60;99.90
15900;DHT22;8048;50.644;6.184;2023-04-30T04:59:02;3.60;99.90
15900;DHT22;8048;50.644;6.184;2023-04-30T05:01:28;3.60;99.90
15900;DHT22;8048;50.644;6.184;2023-04-30T05:03:53;3.60;99.90
15900;DHT22;8048;50.644;6.184;2023-04-30T05:06:19;3.70;99.90
15900;DHT22;8048;50.644;6.184;2023-04-30T05:08:45;3.60;99.90
15900;DHT22;8048;50.644;6.184;2023-04-30T05:11:10;3.60;99.90
15900;DHT22;8048;50.644;6.184;2023-04-30T05:13:36;3.70;99.90
15900;DHT22;8048;50.644;6.184;2023-04-30T05:16:02;3.80;99.90
15900;DHT22;8048;50.644;6.184;2023-04-30T05:18:27;3.80;99.90
15900;DHT22;8048;50.644;6.184;2023-04-30T05:20:53;3.90;99.90
15900;DHT22;8048;50.644;6.184;2023-04-30T05:23:18;3.90;99.90
15900;DHT22;8048;50.644;6.184;2023-04-30T05:25:44;4.00;99.90
15900;DHT22;8048;50.644;6.184;2023-04-30T05:28:11;4.10;99.90
15900;DHT22;8048;50.644;6.184;2023-04-30T05:30:37;4.20;99.90
15900;DHT22;8048;50.644;6.184;2023-04-30T05:33:02;4.30;99.90
15900;DHT22;8048;50.644;6.184;2023-04-30T05:35:28;4.40;99.90
15900;DHT22;8048;50.644;6.184;2023-04-30T05:37:54;4.50;99.90
15900;DHT22;8048;50.644;6.184;2023-04-30T05:40:20;4.60;99.90
15900;DHT22;8048;50.644;6.184;2023-04-30T05:42:45;4.60;99.90
15900;DHT22;8048;50.644;6.184;2023-04-30T05:45:12;4.70;99.90
15900;DHT22;8048;50.644;6.184;2023-04-30T05:47:39;4.80;99.90
15900;DHT22;8048;50.644;6.184;2023-04-30T05:50:05;4.90;99.90
15900;DHT22;8048;50.644;6.184;2023-04-30T05:52:31;5.10;99.90
15900;DHT22;8048;50.644;6.184;2023-04-30T05:54:57;5.20;99.90
15900;DHT22;8048;50.644;6.184;2023-04-30T05:57:22;5.30;99.90
15900;DHT22;8048;50.644;6.184;2023-04-30T05:59:48;5.40;99.90
15900;DHT22;8048;50.644;6.184;2023-04-30T06:02:14;5.50;99.90
15900;DHT22;8048;50.644;6.184;2023-04-30T06:04:39;5.60;99.90
15900;DHT22;8048;50.644;6.184;2023-04-30T06:07:05;5.70;99.90
15900;DHT22;8048;50.644;6.184;2023-04-30T06:09:30;5.90;99.90
15900;DHT22;8048;50.644;6.184;2023-04-30T06:11:56;6.00;99.90
15900;DHT22;8048;50.644;6.184;2023-04-30T06:14:22;6.20;99.90
15900;DHT22;8048;50.644;6.184;2023-04-30T06:16:48;6.40;99.90
15900;DHT22;8048;50.644;6.184;2023-04-30T06:19:14;6.70;99.90
15900;DHT22;8048;50.644;6.184;2023-04-30T06:21:39;7.00;99.90
15900;DHT22;8048;50.644;6.184;2023-04-30T06:24:07;7.40;99.90
15900;DHT22;8048;50.644;6.184;2023-04-30T06:26:33;7.70;99.90
15900;DHT22;8048;50.644;6.184;2023-04-30T06:28:59;7.90;99.90
15900;DHT22;8048;50.644;6.184;2023-04-30T06:31:24;8.10;99.90
15900;DHT22;8048;50.644;6.184;2023-04-30T06:33:50;8.10;99.90
15900;DHT22;8048;50.644;6.184;2023-04-30T06:36:16;8.40;99.90
15900;DHT22;8048;50.644;6.184;2023-04-30T06:38:43;8.50;99.90
15900;DHT22;8048;50.644;6.184;2023-04-30T06:41:08;8.70;99.90
15900;DHT22;8048;50.644;6.184;2023-04-30T06:43:34;8.90;99.90
15900;DHT22;8048;50.644;6.184;2023-04-30T06:45:59;9.00;99.90
15900;DHT22;8048;50.644;6.184;2023-04-30T06:48:25;9.10;99.90
15900;DHT22;8048;50.644;6.184;2023-04-30T06:50:51;9.30;99.90
15900;DHT22;8048;50.644;6.184;2023-04-30T06:53:16;9.40;99.90
15900;DHT22;8048;50.644;6.184;2023-04-30T06:55:44;9.40;99.90
15900;DHT22;8048;50.644;6.184;2023-04-30T06:58:11;9.60;99.90
15900;DHT22;8048;50.644;6.184;2023-04-30T07:00:36;9.60;99.90
15900;DHT22;8048;50.644;6.184;2023-04-30T07:03:02;9.70;99.90
15900;DHT22;8048;50.644;6.184;2023-04-30T07:05:29;9.70;99.90
15900;DHT22;8048;50.644;6.184;2023-04-30T07:07:55;9.90;99.90
15900;DHT22;8048;50.644;6.184;2023-04-30T07:10:21;9.90;99.90
15900;DHT22;8048;50.644;6.184;2023-04-30T07:12:47;10.10;99.90
15900;DHT22;8048;50.644;6.184;2023-04-30T07:15:12;10.20;99.90
15900;DHT22;8048;50.644;6.184;2023-04-30T07:17:38;10.30;99.90
15900;DHT22;8048;50.644;6.184;2023-04-30T07:20:04;10.40;99.90
15900;DHT22;8048;50.644;6.184;2023-04-30T07:22:30;10.60;99.90
15900;DHT22;8048;50.644;6.184;2023-04-30T07:24:56;10.70;99.90
15900;DHT22;8048;50.644;6.184;2023-04-30T07:27:22;10.70;99.90
15900;DHT22;8048;50.644;6.184;2023-04-30T07:29:47;10.90;99.90
15900;DHT22;8048;50.644;6.184;2023-04-30T07:32:13;11.00;99.90
15900;DHT22;8048;50.644;6.184;2023-04-30T07:34:40;11.10;99.90
15900;DHT22;8048;50.644;6.184;2023-04-30T07:37:07;11.20;99.90
15900;DHT22;8048;50.644;6.184;2023-04-30T07:39:34;11.30;99.90
15900;DHT22;8048;50.644;6.184;2023-04-30T07:42:00;11.40;99.60
15900;DHT22;8048;50.644;6.184;2023-04-30T07:44:27;11.40;99.10
15900;DHT22;8048;50.644;6.184;2023-04-30T07:46:52;11.50;97.50
15900;DHT22;8048;50.644;6.184;2023-04-30T07:49:18;11.60;97.10
15900;DHT22;8048;50.644;6.184;2023-04-30T07:51:44;11.60;97.20
15900;DHT22;8048;50.644;6.184;2023-04-30T07:54:10;11.70;97.20
15900;DHT22;8048;50.644;6.184;2023-04-30T07:56:35;11.80;98.10
15900;DHT22;8048;50.644;6.184;2023-04-30T07:59:01;12.00;97.20
15900;DHT22;8048;50.644;6.184;2023-04-30T08:01:26;12.00;96.60
15900;DHT22;8048;50.644;6.184;2023-04-30T08:03:52;12.10;96.80
15900;DHT22;8048;50.644;6.184;2023-04-30T08:06:18;12.30;96.80
15900;DHT22;8048;50.644;6.184;2023-04-30T08:08:43;12.40;96.10
15900;DHT22;8048;50.644;6.184;2023-04-30T08:11:10;12.50;96.40
15900;DHT22;8048;50.644;6.184;2023-04-30T08:13:35;12.60;95.20
15900;DHT22;8048;50.644;6.184;2023-04-30T08:16:01;12.70;94.90
15900;DHT22;8048;50.644;6.184;2023-04-30T08:18:27;12.80;95.40
15900;DHT22;8048;50.644;6.184;2023-04-30T08:20:52;12.90;95.40
15900;DHT22;8048;50.644;6.184;2023-04-30T08:23:18;13.10;94.30
15900;DHT22;8048;50.644;6.184;2023-04-30T08:25:43;13.10;93.70
15900;DHT22;8048;50.644;6.184;2023-04-30T08:28:09;13.30;94.00
15900;DHT22;8048;50.644;6.184;2023-04-30T08:30:34;13.30;93.00
15900;DHT22;8048;50.644;6.184;2023-04-30T08:33:00;13.30;91.80
15900;DHT22;8048;50.644;6.184;2023-04-30T08:35:25;13.30;93.00
15900;DHT22;8048;50.644;6.184;2023-04-30T08:37:51;13.50;92.60
15900;DHT22;8048;50.644;6.184;2023-04-30T08:40:17;13.70;93.40
15900;DHT22;8048;50.644;6.184;2023-04-30T08:42:54;13.90;92.40
15900;DHT22;8048;50.644;6.184;2023-04-30T08:45:24;14.10;91.70
15900;DHT22;8048;50.644;6.184;2023-04-30T08:47:51;14.30;92.20
15900;DHT22;8048;50.644;6.184;2023-04-30T08:50:16;14.50;90.60
15900;DHT22;8048;50.644;6.184;2023-04-30T08:52:42;14.60;91.10
15900;DHT22;8048;50.644;6.184;2023-04-30T08:55:08;14.60;90.30
15900;DHT22;8048;50.644;6.184;2023-04-30T08:57:36;14.50;85.30
15900;DHT22;8048;50.644;6.184;2023-04-30T09:00:03;14.50;85.70
15900;DHT22;8048;50.644;6.184;2023-04-30T09:02:31;14.60;88.00
15900;DHT22;8048;50.644;6.184;2023-04-30T09:04:57;14.80;90.40
15900;DHT22;8048;50.644;6.184;2023-04-30T09:07:23;15.10;89.10
15900;DHT22;8048;50.644;6.184;2023-04-30T09:09:52;15.40;90.50
15900;DHT22;8048;50.644;6.184;2023-04-30T09:12:18;15.50;85.00
15900;DHT22;8048;50.644;6.184;2023-04-30T09:15:04;15.60;87.40
15900;DHT22;8048;50.644;6.184;2023-04-30T09:17:31;15.80;88.10
15900;DHT22;8048;50.644;6.184;2023-04-30T09:20:13;16.10;86.00
15900;DHT22;8048;50.644;6.184;2023-04-30T09:22:40;16.20;83.30
15900;DHT22;8048;50.644;6.184;2023-04-30T09:25:06;16.20;80.00
15900;DHT22;8048;50.644;6.184;2023-04-30T09:27:33;16.20;81.80
15900;DHT22;8048;50.644;6.184;2023-04-30T09:29:59;16.40;86.20
15900;DHT22;8048;50.644;6.184;2023-04-30T09:32:25;16.40;79.80
15900;DHT22;8048;50.644;6.184;2023-04-30T09:34:50;16.40;83.00
15900;DHT22;8048;50.644;6.184;2023-04-30T09:37:16;16.20;76.70
15900;DHT22;8048;50.644;6.184;2023-04-30T09:39:50;16.00;77.20
15900;DHT22;8048;50.644;6.184;2023-04-30T09:42:16;16.10;79.80
15900;DHT22;8048;50.644;6.184;2023-04-30T09:44:43;16.50;82.20
15900;DHT22;8048;50.644;6.184;2023-04-30T09:47:16;16.80;84.70
15900;DHT22;8048;50.644;6.184;2023-04-30T09:49:46;16.60;74.50
15900;DHT22;8048;50.644;6.184;2023-04-30T09:52:14;16.40;76.50
15900;DHT22;8048;50.644;6.184;2023-04-30T09:54:40;16.40;79.10
15900;DHT22;8048;50.644;6.184;2023-04-30T09:57:10;16.60;77.90
15900;DHT22;8048;50.644;6.184;2023-04-30T09:59:36;16.70;76.60
15900;DHT22;8048;50.644;6.184;2023-04-30T10:02:07;16.80;73.10
15900;DHT22;8048;50.644;6.184;2023-04-30T10:04:36;16.50;73.60
15900;DHT22;8048;50.644;6.184;2023-04-30T10:09:41;16.50;74.50
15900;DHT22;8048;50.644;6.184;2023-04-30T10:12:21;16.80;76.60
15900;DHT22;8048;50.644;6.184;2023-04-30T10:18:02;17.20;71.40
15900;DHT22;8048;50.644;6.184;2023-04-30T10:20:30;17.10;71.30
15900;DHT22;8048;50.644;6.184;2023-04-30T10:22:59;17.40;74.90
15900;DHT22;8048;50.644;6.184;2023-04-30T10:25:26;17.60;73.10
15900;DHT22;8048;50.644;6.184;2023-04-30T10:27:52;17.70;69.20
15900;DHT22;8048;50.644;6.184;2023-04-30T10:30:18;17.60;70.90
15900;DHT22;8048;50.644;6.184;2023-04-30T10:32:56;17.60;70.90
15900;DHT22;8048;50.644;6.184;2023-04-30T10:35:31;17.50;67.80
15900;DHT22;8048;50.644;6.184;2023-04-30T10:38:12;17.40;70.70
15900;DHT22;8048;50.644;6.184;2023-04-30T10:40:39;18.00;71.60
15900;DHT22;8048;50.644;6.184;2023-04-30T10:43:05;18.10;63.80
15900;DHT22;8048;50.644;6.184;2023-04-30T10:45:40;18.10;68.30
15900;DHT22;8048;50.644;6.184;2023-04-30T10:48:07;18.30;66.50
15900;DHT22;8048;50.644;6.184;2023-04-30T10:50:39;18.40;67.50
15900;DHT22;8048;50.644;6.184;2023-04-30T10:53:07;18.60;65.30
15900;DHT22;8048;50.644;6.184;2023-04-30T10:55:57;18.70;69.80
15900;DHT22;8048;50.644;6.184;2023-04-30T10:58:24;19.00;63.90
15900;DHT22;8048;50.644;6.184;2023-04-30T11:01:01;19.10;66.00
15900;DHT22;8048;50.644;6.184;2023-04-30T11:03:28;19.50;69.50
15900;DHT22;8048;50.644;6.184;2023-04-30T11:05:54;19.70;68.30
15900;DHT22;8048;50.644;6.184;2023-04-30T11:08:31;20.20;70.90
15900;DHT22;8048;50.644;6.184;2023-04-30T11:10:58;20.40;62.60
15900;DHT22;8048;50.644;6.184;2023-04-30T11:13:26;20.40;64.20
15900;DHT22;8048;50.644;6.184;2023-04-30T11:15:52;20.50;60.70
15900;DHT22;8048;50.644;6.184;2023-04-30T11:18:18;20.80;63.10
15900;DHT22;8048;50.644;6.184;2023-04-30T11:20:50;20.70;59.90
15900;DHT22;8048;50.644;6.184;2023-04-30T11:23:22;20.70;61.10
15900;DHT22;8048;50.644;6.184;2023-04-30T11:25:48;21.00;60.90
15900;DHT22;8048;50.644;6.184;2023-04-30T11:28:20;21.00;64.90
15900;DHT22;8048;50.644;6.184;2023-04-30T11:30:52;21.40;66.20
15900;DHT22;8048;50.644;6.184;2023-04-30T11:33:19;21.30;61.50
15900;DHT22;8048;50.644;6.184;2023-04-30T11:35:45;21.20;61.90
15900;DHT22;8048;50.644;6.184;2023-04-30T11:38:14;21.60;64.20
15900;DHT22;8048;50.644;6.184;2023-04-30T11:40:41;21.70;58.80
15900;DHT22;8048;50.644;6.184;2023-04-30T11:43:07;21.50;58.00
15900;DHT22;8048;50.644;6.184;2023-04-30T11:45:33;21.00;56.90
15900;DHT22;8048;50.644;6.184;2023-04-30T11:47:58;20.60;58.50
15900;DHT22;8048;50.644;6.184;2023-04-30T11:50:25;20.60;66.30
15900;DHT22;8048;50.644;6.184;2023-04-30T11:52:54;21.30;66.50
15900;DHT22;8048;50.644;6.184;2023-04-30T11:55:22;21.80;64.60
15900;DHT22;8048;50.644;6.184;2023-04-30T11:57:50;21.80;57.80
15900;DHT22;8048;50.644;6.184;2023-04-30T12:00:18;21.80;60.30
15900;DHT22;8048;50.644;6.184;2023-04-30T12:02:46;22.30;65.80
15900;DHT22;8048;50.644;6.184;2023-04-30T12:05:20;22.70;62.60
15900;DHT22;8048;50.644;6.184;2023-04-30T12:10:11;23.00;59.40
15900;DHT22;8048;50.644;6.184;2023-04-30T12:12:37;23.20;61.00
15900;DHT22;8048;50.644;6.184;2023-04-30T12:15:16;23.40;64.50
15900;DHT22;8048;50.644;6.184;2023-04-30T12:17:42;23.40;59.80
15900;DHT22;8048;50.644;6.184;2023-04-30T12:20:08;23.30;61.60
15900;DHT22;8048;50.644;6.184;2023-04-30T12:22:35;23.10;57.90
15900;DHT22;8048;50.644;6.184;2023-04-30T12:25:10;23.30;64.70
15900;DHT22;8048;50.644;6.184;2023-04-30T12:27:41;23.50;59.70
15900;DHT22;8048;50.644;6.184;2023-04-30T12:30:08;23.30;62.10
15900;DHT22;8048;50.644;6.184;2023-04-30T12:32:44;22.80;57.50
15900;DHT22;8048;50.644;6.184;2023-04-30T12:35:29;23.10;61.50
15900;DHT22;8048;50.644;6.184;2023-04-30T12:38:06;23.10;63.70
15900;DHT22;8048;50.644;6.184;2023-04-30T12:40:32;23.40;62.00
15900;DHT22;8048;50.644;6.184;2023-04-30T12:43:06;23.50;61.20
15900;DHT22;8048;50.644;6.184;2023-04-30T12:45:47;23.80;63.00
15900;DHT22;8048;50.644;6.184;2023-04-30T12:48:14;23.70;58.00
15900;DHT22;8048;50.644;6.184;2023-04-30T12:50:40;23.30;64.00
15900;DHT22;8048;50.644;6.184;2023-04-30T12:53:06;23.20;61.00
15900;DHT22;8048;50.644;6.184;2023-04-30T12:55:34;23.10;59.00
15900;DHT22;8048;50.644;6.184;2023-04-30T12:58:13;22.10;59.80
15900;DHT22;8048;50.644;6.184;2023-04-30T13:03:12;23.20;62.60
15900;DHT22;8048;50.644;6.184;2023-04-30T13:05:39;23.60;58.70
15900;DHT22;8048;50.644;6.184;2023-04-30T13:08:05;23.90;60.20
15900;DHT22;8048;50.644;6.184;2023-04-30T13:10:32;23.20;56.20
15900;DHT22;8048;50.644;6.184;2023-04-30T13:12:58;22.40;56.10
15900;DHT22;8048;50.644;6.184;2023-04-30T13:15:24;22.40;59.50
15900;DHT22;8048;50.644;6.184;2023-04-30T13:17:49;22.80;59.10
15900;DHT22;8048;50.644;6.184;2023-04-30T13:20:15;22.90;56.90
15900;DHT22;8048;50.644;6.184;2023-04-30T13:22:41;23.20;58.70
15900;DHT22;8048;50.644;6.184;2023-04-30T13:25:07;23.20;59.10
15900;DHT22;8048;50.644;6.184;2023-04-30T13:27:32;23.30;57.70
15900;DHT22;8048;50.644;6.184;2023-04-30T13:29:59;23.60;58.00
15900;DHT22;8048;50.644;6.184;2023-04-30T13:32:25;23.40;55.30
15900;DHT22;8048;50.644;6.184;2023-04-30T13:34:51;22.60;54.90
15900;DHT22;8048;50.644;6.184;2023-04-30T13:37:19;22.20;58.10
15900;DHT22;8048;50.644;6.184;2023-04-30T13:39:45;22.60;59.10
15900;DHT22;8048;50.644;6.184;2023-04-30T13:42:12;23.10;59.60
15900;DHT22;8048;50.644;6.184;2023-04-30T13:44:37;23.10;55.80
15900;DHT22;8048;50.644;6.184;2023-04-30T13:47:04;22.70;57.80
15900;DHT22;8048;50.644;6.184;2023-04-30T13:49:29;22.30;56.30
15900;DHT22;8048;50.644;6.184;2023-04-30T13:51:55;22.00;56.30
15900;DHT22;8048;50.644;6.184;2023-04-30T13:54:20;21.80;57.10
15900;DHT22;8048;50.644;6.184;2023-04-30T13:56:46;22.00;59.00
15900;DHT22;8048;50.644;6.184;2023-04-30T13:59:14;22.40;61.90
15900;DHT22;8048;50.644;6.184;2023-04-30T14:01:39;23.00;62.40
15900;DHT22;8048;50.644;6.184;2023-04-30T14:04:05;23.20;58.70
15900;DHT22;8048;50.644;6.184;2023-04-30T14:06:32;23.50;60.20
15900;DHT22;8048;50.644;6.184;2023-04-30T14:08:58;24.20;58.90
15900;DHT22;8048;50.644;6.184;2023-04-30T14:11:24;24.20;58.70
15900;DHT22;8048;50.644;6.184;2023-04-30T14:13:51;23.80;55.50
15900;DHT22;8048;50.644;6.184;2023-04-30T14:16:17;23.00;57.40
15900;DHT22;8048;50.644;6.184;2023-04-30T14:18:43;22.80;60.50
15900;DHT22;8048;50.644;6.184;2023-04-30T14:21:09;23.10;57.70
15900;DHT22;8048;50.644;6.184;2023-04-30T14:23:35;23.40;60.40
15900;DHT22;8048;50.644;6.184;2023-04-30T14:26:03;23.50;57.90
15900;DHT22;8048;50.644;6.184;2023-04-30T14:28:29;23.10;56.10
15900;DHT22;8048;50.644;6.184;2023-04-30T14:30:54;22.70;58.40
15900;DHT22;8048;50.644;6.184;2023-04-30T14:33:20;21.90;55.90
15900;DHT22;8048;50.644;6.184;2023-04-30T14:35:45;22.00;58.20
15900;DHT22;8048;50.644;6.184;2023-04-30T14:38:12;21.90;56.30
15900;DHT22;8048;50.644;6.184;2023-04-30T14:40:38;22.10;57.30
15900;DHT22;8048;50.644;6.184;2023-04-30T14:43:03;22.20;56.70
15900;DHT22;8048;50.644;6.184;2023-04-30T14:45:31;22.00;56.90
15900;DHT22;8048;50.644;6.184;2023-04-30T14:47:56;21.90;55.00
15900;DHT22;8048;50.644;6.184;2023-04-30T14:50:22;21.70;58.00
15900;DHT22;8048;50.644;6.184;2023-04-30T14:52:48;21.70;56.80
15900;DHT22;8048;50.644;6.184;2023-04-30T14:55:14;21.70;58.70
15900;DHT22;8048;50.644;6.184;2023-04-30T14:57:39;21.80;59.20
15900;DHT22;8048;50.644;6.184;2023-04-30T15:00:05;22.20;59.30
15900;DHT22;8048;50.644;6.184;2023-04-30T15:02:31;22.50;57.70
15900;DHT22;8048;50.644;6.184;2023-04-30T15:04:56;22.50;57.70
15900;DHT22;8048;50.644;6.184;2023-04-30T15:07:22;22.30;57.10
15900;DHT22;8048;50.644;6.184;2023-04-30T15:09:47;22.20;59.40
15900;DHT22;8048;50.644;6.184;2023-04-30T15:12:13;22.10;57.20
15900;DHT22;8048;50.644;6.184;2023-04-30T15:14:39;22.20;58.40
15900;DHT22;8048;50.644;6.184;2023-04-30T15:17:05;22.40;57.90
15900;DHT22;8048;50.644;6.184;2023-04-30T15:19:31;22.70;60.80
15900;DHT22;8048;50.644;6.184;2023-04-30T15:21:56;22.70;56.90
15900;DHT22;8048;50.644;6.184;2023-04-30T15:24:22;22.70;57.80
15900;DHT22;8048;50.644;6.184;2023-04-30T15:26:47;22.50;57.40
15900;DHT22;8048;50.644;6.184;2023-04-30T15:29:15;22.40;56.70
15900;DHT22;8048;50.644;6.184;2023-04-30T15:31:40;22.50;56.30
15900;DHT22;8048;50.644;6.184;2023-04-30T15:34:06;22.30;57.40
15900;DHT22;8048;50.644;6.184;2023-04-30T15:36:31;22.00;55.50
15900;DHT22;8048;50.644;6.184;2023-04-30T15:38:57;21.90;57.40
15900;DHT22;8048;50.644;6.184;2023-04-30T15:41:23;22.10;57.90
15900;DHT22;8048;50.644;6.184;2023-04-30T15:43:48;22.30;57.40
15900;DHT22;8048;50.644;6.184;2023-04-30T15:46:14;22.40;56.20
15900;DHT22;8048;50.644;6.184;2023-04-30T15:48:40;22.20;56.10
15900;DHT22;8048;50.644;6.184;2023-04-30T15:51:05;22.20;58.20
15900;DHT22;8048;50.644;6.184;2023-04-30T15:53:31;22.50;58.10
15900;DHT22;8048;50.644;6.184;2023-04-30T15:55:57;22.70;57.40
15900;DHT22;8048;50.644;6.184;2023-04-30T15:58:22;22.60;58.80
15900;DHT22;8048;50.644;6.184;2023-04-30T16:00:48;22.40;58.40
15900;DHT22;8048;50.644;6.184;2023-04-30T16:03:13;22.40;58.00
15900;DHT22;8048;50.644;6.184;2023-04-30T16:05:39;22.50;58.80
15900;DHT22;8048;50.644;6.184;2023-04-30T16:08:08;22.20;58.80
15900;DHT22;8048;50.644;6.184;2023-04-30T16:10:35;21.90;56.90
15900;DHT22;8048;50.644;6.184;2023-04-30T16:13:01;21.50;61.20